Time;durP1;ratioP1;P1;durP2;ratioP2;P2;SDS_P1;SDS_P2;PMS_P1;PMS_P2;Temp;Humidity;BMP_temperature;BMP_pressure;BME280_temperature;BME280_humidity;BME280_pressure;Samples;Min_cycle;Max_cycle;Signal;HPM_P1;HPM_P2
2022/05/18 00:02:23;;;;;;;14.35;7.72;;;15.40;99.90;;;;;;5016885;28;20046;-76
2022/05/18 00:04:48;;;;;;;15.90;8.10;;;15.50;99.90;;;;;;5016564;28;20046;-76
2022/05/18 00:07:14;;;;;;;13.93;8.27;;;15.40;99.90;;;;;;5016581;28;20072;-76
2022/05/18 00:09:40;;;;;;;13.95;7.70;;;15.20;99.90;;;;;;5016697;28;20046;-76
2022/05/18 00:12:06;;;;;;;13.27;7.43;;;15.20;99.90;;;;;;5016529;28;20033;-76
2022/05/18 00:14:31;;;;;;;15.13;6.43;;;15.10;99.90;;;;;;5016425;28;20046;-77
2022/05/18 00:17:00;;;;;;;11.68;7.30;;;15.20;99.90;;;;;;5016445;28;20405;-76
2022/05/18 00:19:26;;;;;;;14.00;7.35;;;15.30;99.90;;;;;;5016509;28;20050;-77
2022/05/18 00:21:51;;;;;;;11.60;6.65;;;15.30;99.90;;;;;;5016446;28;20045;-76
2022/05/18 00:24:17;;;;;;;10.27;6.93;;;15.30;99.90;;;;;;5016372;28;20517;-76
2022/05/18 00:26:42;;;;;;;9.27;6.53;;;15.20;99.90;;;;;;5016515;28;20585;-76
2022/05/18 00:29:09;;;;;;;12.98;6.03;;;15.10;99.90;;;;;;5048254;28;20169;-76
2022/05/18 00:31:35;;;;;;;16.85;7.15;;;15.10;99.90;;;;;;5016140;28;20049;-76
2022/05/18 00:34:00;;;;;;;11.30;6.18;;;15.20;99.90;;;;;;5015733;28;20100;-76
2022/05/18 00:36:26;;;;;;;14.50;7.13;;;15.20;99.90;;;;;;5016285;28;20046;-76
2022/05/18 00:38:51;;;;;;;10.32;5.97;;;15.20;99.90;;;;;;5015196;28;20076;-76
2022/05/18 00:41:19;;;;;;;11.85;6.18;;;15.10;99.90;;;;;;5015776;28;20103;-77
2022/05/18 00:43:48;;;;;;;9.65;5.35;;;15.00;99.90;;;;;;5015586;28;20046;-77
2022/05/18 00:46:15;;;;;;;11.73;6.45;;;15.10;99.90;;;;;;5016128;28;20049;-76
2022/05/18 00:48:42;;;;;;;11.90;6.95;;;15.10;99.90;;;;;;5016049;28;20052;-76
2022/05/18 00:51:27;;;;;;;10.07;5.50;;;15.00;99.90;;;;;;5014998;28;20068;-76
2022/05/18 00:54:14;;;;;;;9.25;6.05;;;14.90;99.90;;;;;;5015450;28;20081;-76
2022/05/18 00:56:59;;;;;;;11.02;6.10;;;14.80;99.90;;;;;;5015875;28;20099;-76
2022/05/18 00:59:37;;;;;;;12.23;6.32;;;14.70;99.90;;;;;;5015769;28;20056;-76
2022/05/18 01:02:05;;;;;;;12.90;6.60;;;14.60;99.90;;;;;;5015392;28;20057;-76
2022/05/18 01:04:31;;;;;;;12.38;6.15;;;14.50;99.90;;;;;;5015233;28;20065;-76
2022/05/18 01:07:07;;;;;;;11.52;6.40;;;14.50;99.90;;;;;;5015908;28;20045;-76
2022/05/18 01:09:35;;;;;;;;;;;14.40;99.90;;;;;;5016323;28;20125;-76
2022/05/18 01:12:02;;;;;;;15.35;7.88;;;14.40;99.90;;;;;;5015201;28;20404;-77
2022/05/18 01:14:34;;;;;;;11.07;6.45;;;14.30;99.90;;;;;;5015016;28;20052;-77
2022/05/18 01:17:00;;;;;;;14.25;7.95;;;14.20;99.90;;;;;;5015379;28;20045;-76
2022/05/18 01:19:39;;;;;;;8.40;6.18;;;14.10;99.90;;;;;;5015346;28;20121;-77
2022/05/18 01:22:14;;;;;;;10.70;6.22;;;14.30;99.90;;;;;;5015176;28;20117;-76
2022/05/18 01:25:18;;;;;;;11.02;6.22;;;14.20;99.90;;;;;;5014992;28;20042;-76
2022/05/18 01:27:44;;;;;;;12.05;6.70;;;14.20;99.90;;;;;;5015014;28;20050;-77
2022/05/18 01:30:11;;;;;;;15.27;6.88;;;14.30;99.90;;;;;;5015270;28;20226;-77
2022/05/18 01:32:43;;;;;;;13.77;7.00;;;14.20;99.90;;;;;;5014861;28;20073;-76
2022/05/18 01:35:11;;;;;;;11.93;7.65;;;14.10;99.90;;;;;;5014891;28;20076;-76
2022/05/18 01:37:37;;;;;;;11.95;7.03;;;14.00;99.90;;;;;;5015051;28;20174;-76
2022/05/18 01:40:08;;;;;;;14.10;7.88;;;14.00;99.90;;;;;;5014861;28;20053;-77
2022/05/18 01:42:45;;;;;;;16.13;8.88;;;14.00;99.90;;;;;;5014688;28;20081;-77
2022/05/18 01:45:11;;;;;;;13.85;7.35;;;13.90;99.90;;;;;;5014895;28;20060;-76
2022/05/18 01:47:39;;;;;;;12.25;6.97;;;13.90;99.90;;;;;;5014837;28;20037;-76
2022/05/18 01:50:09;;;;;;;13.02;7.38;;;14.10;99.90;;;;;;5014696;28;20038;-76
2022/05/18 01:52:35;;;;;;;14.70;7.03;;;14.20;99.90;;;;;;5014450;28;20517;-77
2022/05/18 01:55:01;;;;;;;12.65;7.40;;;14.10;99.90;;;;;;5014571;28;20049;-76
2022/05/18 01:57:27;;;;;;;12.85;7.10;;;14.10;99.90;;;;;;5014837;28;20132;-76
2022/05/18 01:59:52;;;;;;;17.25;7.25;;;14.00;99.90;;;;;;5081662;22;20135;-79
2022/05/18 02:02:18;;;;;;;14.25;7.35;;;14.00;99.90;;;;;;5043477;28;20126;-80
2022/05/18 02:04:44;;;;;;;10.82;6.53;;;14.00;99.90;;;;;;5052864;28;20051;-80
2022/05/18 02:07:11;;;;;;;14.90;7.70;;;14.00;99.90;;;;;;5053420;28;20044;-80
2022/05/18 02:09:38;;;;;;;11.10;6.57;;;14.00;99.90;;;;;;5054658;28;20477;-79
2022/05/18 02:12:07;;;;;;;10.57;6.35;;;14.00;99.90;;;;;;5054947;28;20045;-80
2022/05/18 02:14:32;;;;;;;13.55;7.35;;;14.00;99.90;;;;;;5037110;28;20044;-80
2022/05/18 02:16:58;;;;;;;13.25;7.10;;;14.00;99.90;;;;;;5054226;28;20116;-80
2022/05/18 02:19:24;;;;;;;15.43;8.20;;;14.00;99.90;;;;;;5053053;28;20071;-80
2022/05/18 02:21:50;;;;;;;15.02;7.38;;;13.80;99.90;;;;;;5054554;28;20112;-79
2022/05/18 02:24:16;;;;;;;17.48;7.10;;;13.70;99.90;;;;;;5054518;28;20459;-80
2022/05/18 02:26:42;;;;;;;15.65;8.23;;;13.60;99.90;;;;;;5053205;28;20037;-80
2022/05/18 02:29:08;;;;;;;14.93;7.72;;;13.60;99.90;;;;;;5052981;28;20541;-80
2022/05/18 02:31:34;;;;;;;11.05;7.50;;;13.50;99.90;;;;;;5054423;28;20421;-80
2022/05/18 02:34:00;;;;;;;11.23;7.38;;;13.50;99.90;;;;;;5053852;28;20048;-79
2022/05/18 02:36:26;;;;;;;12.30;7.63;;;13.70;99.90;;;;;;5053674;28;20049;-80
2022/05/18 02:38:52;;;;;;;12.98;7.07;;;13.60;99.90;;;;;;5054232;28;20048;-80
2022/05/18 02:41:19;;;;;;;14.27;7.93;;;13.50;99.90;;;;;;5053972;28;20037;-80
2022/05/18 02:43:45;;;;;;;12.77;8.02;;;13.50;99.90;;;;;;5054185;28;20048;-80
2022/05/18 02:46:20;;;;;;;11.90;7.63;;;13.50;99.90;;;;;;5054208;28;20404;-80
2022/05/18 02:48:47;;;;;;;15.27;7.47;;;13.50;99.90;;;;;;5069650;28;20052;-80
2022/05/18 02:51:15;;;;;;;12.95;8.15;;;13.40;99.90;;;;;;5053658;28;20477;-80
2022/05/18 02:53:41;;;;;;;17.05;8.60;;;13.50;99.90;;;;;;5053677;28;20041;-80
2022/05/18 02:56:10;;;;;;;16.17;8.38;;;13.60;99.90;;;;;;5052672;28;20555;-80
2022/05/18 02:58:38;;;;;;;16.00;7.35;;;13.60;99.90;;;;;;5054231;28;20130;-80
2022/05/18 03:01:06;;;;;;;13.52;7.10;;;13.60;99.90;;;;;;5053831;28;20053;-80
2022/05/18 03:03:32;;;;;;;13.75;7.43;;;13.70;99.90;;;;;;5052693;28;20099;-80
2022/05/18 03:05:57;;;;;;;14.27;7.53;;;13.70;99.90;;;;;;5054040;28;20041;-79
2022/05/18 03:08:23;;;;;;;11.18;7.03;;;13.70;99.90;;;;;;5050960;28;20033;-80
2022/05/18 03:10:48;;;;;;;15.75;7.60;;;13.80;99.90;;;;;;5054154;28;20041;-80
2022/05/18 03:13:14;;;;;;;12.85;7.30;;;13.80;99.90;;;;;;5053391;28;20094;-79
2022/05/18 03:15:39;;;;;;;13.88;7.35;;;13.70;99.90;;;;;;5053556;28;20067;-80
2022/05/18 03:18:05;;;;;;;14.80;7.63;;;13.70;99.90;;;;;;5053481;28;20401;-80
2022/05/18 03:23:33;;;;;;;13.25;7.38;;;13.70;99.90;;;;;;5053144;28;20049;-80
2022/05/18 03:25:59;;;;;;;13.68;7.18;;;13.80;99.90;;;;;;5053478;28;20485;-80
2022/05/18 03:28:25;;;;;;;10.55;7.20;;;13.90;99.90;;;;;;5069128;28;20084;-80
2022/05/18 03:30:51;;;;;;;10.85;7.20;;;14.00;99.90;;;;;;5053429;28;20103;-79
2022/05/18 03:33:16;;;;;;;13.98;7.45;;;14.10;99.90;;;;;;5053342;28;20041;-80
2022/05/18 03:35:42;;;;;;;14.63;7.10;;;14.10;99.90;;;;;;5052977;28;20084;-80
2022/05/18 03:38:07;;;;;;;15.32;7.38;;;14.10;99.90;;;;;;5053714;28;20047;-79
2022/05/18 03:40:38;;;;;;;13.43;7.20;;;14.00;99.90;;;;;;5053990;28;20048;-80
2022/05/18 03:43:05;;;;;;;10.15;6.82;;;13.90;99.90;;;;;;5053348;28;20055;-79
2022/05/18 03:45:33;;;;;;;14.48;7.35;;;13.80;99.90;;;;;;5053401;28;20041;-80
2022/05/18 03:47:59;;;;;;;13.85;7.80;;;13.80;99.90;;;;;;5052136;28;20083;-80
2022/05/18 03:50:28;;;;;;;14.45;7.82;;;13.80;99.90;;;;;;5052033;28;20465;-80
2022/05/18 03:52:58;;;;;;;13.05;8.32;;;13.90;99.90;;;;;;5052703;28;20063;-79
2022/05/18 03:55:24;;;;;;;11.30;8.05;;;13.90;99.90;;;;;;5052645;28;20103;-79
2022/05/18 03:57:50;;;;;;;12.32;7.18;;;13.80;99.90;;;;;;5052113;28;20063;-79
2022/05/18 04:00:16;;;;;;;13.57;8.18;;;13.80;99.90;;;;;;5052686;28;20493;-79
2022/05/18 04:02:42;;;;;;;12.52;6.93;;;13.90;99.90;;;;;;5052770;28;20090;-80
2022/05/18 04:05:11;;;;;;;14.77;7.30;;;14.00;99.90;;;;;;5052840;28;20073;-79
2022/05/18 04:07:37;;;;;;;17.15;7.28;;;14.00;99.90;;;;;;5052737;28;20037;-80
2022/05/18 04:10:04;;;;;;;12.27;7.85;;;14.00;99.90;;;;;;5052853;28;20051;-80
2022/05/18 04:12:29;;;;;;;16.38;7.60;;;14.00;99.90;;;;;;5052954;28;20080;-79
2022/05/18 04:14:55;;;;;;;16.10;7.53;;;14.10;99.90;;;;;;5052329;28;20073;-79
2022/05/18 04:17:21;;;;;;;11.50;8.02;;;14.10;99.90;;;;;;5041564;28;20038;-79
2022/05/18 04:19:47;;;;;;;16.90;7.07;;;14.10;99.90;;;;;;5031832;28;20504;-80
2022/05/18 04:22:13;;;;;;;16.85;7.10;;;14.10;99.90;;;;;;5037703;28;20123;-80
2022/05/18 04:24:38;;;;;;;15.48;7.63;;;14.00;99.90;;;;;;5032673;28;20413;-79
2022/05/18 04:27:06;;;;;;;10.98;7.20;;;14.10;99.90;;;;;;5036628;28;20049;-79
2022/05/18 04:29:32;;;;;;;13.10;7.38;;;14.00;99.90;;;;;;5052958;28;20132;-79
2022/05/18 04:31:58;;;;;;;13.35;7.32;;;14.00;99.90;;;;;;5056860;28;20493;-79
2022/05/18 04:34:25;;;;;;;15.85;7.35;;;14.10;99.90;;;;;;5056749;28;20040;-79
2022/05/18 04:36:51;;;;;;;12.00;6.82;;;14.20;99.90;;;;;;5056794;28;20144;-79
2022/05/18 04:39:17;;;;;;;13.70;7.38;;;14.50;99.90;;;;;;5056597;28;20045;-79
2022/05/18 04:41:42;;;;;;;13.25;7.13;;;14.90;99.90;;;;;;5056085;28;20106;-79
2022/05/18 04:44:08;;;;;;;11.77;6.20;;;15.20;99.90;;;;;;5056572;28;20055;-79
2022/05/18 04:46:33;;;;;;;13.90;6.60;;;15.50;99.90;;;;;;5055962;28;20105;-79
2022/05/18 04:48:59;;;;;;;8.38;5.55;;;15.70;99.90;;;;;;5056104;28;20048;-80
2022/05/18 04:51:24;;;;;;;12.40;6.53;;;16.00;99.90;;;;;;5056375;28;20074;-79
2022/05/18 04:53:50;;;;;;;12.15;6.72;;;16.40;99.90;;;;;;5053771;28;20067;-80
2022/05/18 04:56:16;;;;;;;11.88;6.15;;;16.80;99.90;;;;;;5053657;28;20498;-79
2022/05/18 04:58:41;;;;;;;12.20;5.20;;;17.20;99.90;;;;;;5052845;28;20099;-80
2022/05/18 05:01:08;;;;;;;8.80;5.68;;;17.60;99.90;;;;;;5053482;28;20374;-80
2022/05/18 05:03:34;;;;;;;10.18;5.22;;;18.10;99.90;;;;;;5053585;28;20057;-79
2022/05/18 05:06:00;;;;;;;11.00;5.68;;;18.20;99.90;;;;;;5053917;28;20044;-80
2022/05/18 05:08:26;;;;;;;9.20;5.40;;;18.60;99.90;;;;;;5052592;28;20041;-80
2022/05/18 05:10:53;;;;;;;10.88;5.90;;;19.00;99.90;;;;;;5053373;28;20041;-80
2022/05/18 05:13:18;;;;;;;7.03;4.85;;;19.40;99.90;;;;;;5053852;28;20120;-79
2022/05/18 05:15:46;;;;;;;8.88;4.63;;;20.10;99.90;;;;;;5053363;28;20072;-79
2022/05/18 05:18:12;;;;;;;8.75;4.25;;;20.60;99.90;;;;;;5053666;28;20099;-79
2022/05/18 05:20:38;;;;;;;9.82;5.32;;;20.50;99.90;;;;;;5069098;28;20428;-79
2022/05/18 05:23:03;;;;;;;9.45;4.68;;;20.90;99.90;;;;;;5053078;28;20048;-79
2022/05/18 05:25:29;;;;;;;7.75;4.40;;;21.10;99.90;;;;;;5053717;28;20041;-79
2022/05/18 05:27:55;;;;;;;9.23;5.45;;;20.80;99.90;;;;;;5055806;28;20052;-78
2022/05/18 05:30:21;;;;;;;8.30;4.30;;;21.00;99.90;;;;;;5054953;28;20114;-79
2022/05/18 05:32:47;;;;;;;6.22;4.03;;;21.40;99.90;;;;;;5055794;28;20497;-79
2022/05/18 05:35:13;;;;;;;10.40;4.85;;;21.70;99.90;;;;;;5056268;28;20041;-79
2022/05/18 05:37:39;;;;;;;11.35;5.15;;;21.70;95.90;;;;;;5055521;28;20128;-77
2022/05/18 05:40:06;;;;;;;7.82;4.90;;;22.30;92.50;;;;;;5038951;28;20044;-76
2022/05/18 05:42:32;;;;;;;8.32;4.63;;;22.80;81.50;;;;;;5068129;28;20049;-77
2022/05/18 05:44:57;;;;;;;6.60;4.40;;;23.00;74.60;;;;;;5069321;28;20150;-78
2022/05/18 05:47:23;;;;;;;8.50;4.75;;;22.80;76.90;;;;;;5076330;28;20044;-78
2022/05/18 05:49:48;;;;;;;9.05;4.60;;;23.30;60.70;;;;;;5075890;28;20032;-79
2022/05/18 05:52:14;;;;;;;10.73;5.80;;;22.90;71.50;;;;;;5064184;28;20045;-78
2022/05/18 05:54:39;;;;;;;10.88;4.40;;;23.10;62.40;;;;;;5074989;28;20040;-78
2022/05/18 05:57:06;;;;;;;8.07;4.97;;;23.60;55.00;;;;;;5074438;28;20045;-78
2022/05/18 05:59:33;;;;;;;8.60;4.93;;;23.40;54.60;;;;;;5069384;28;20048;-78
2022/05/18 06:02:04;;;;;;;11.05;4.95;;;23.70;52.00;;;;;;5054982;28;20041;-78
2022/05/18 06:04:31;;;;;;;8.88;5.38;;;23.90;48.80;;;;;;5067741;28;20044;-78
2022/05/18 06:06:57;;;;;;;8.48;5.22;;;24.10;44.00;;;;;;5078784;28;20078;-78
2022/05/18 06:09:22;;;;;;;7.80;4.75;;;24.20;40.50;;;;;;5062754;28;20072;-77
2022/05/18 06:11:50;;;;;;;7.90;4.70;;;24.20;37.10;;;;;;5067988;28;20484;-78
2022/05/18 06:14:16;;;;;;;10.18;5.10;;;24.10;40.20;;;;;;5078155;28;20041;-78
2022/05/18 06:16:42;;;;;;;10.30;5.80;;;24.20;42.70;;;;;;5059302;28;20041;-77
2022/05/18 06:19:08;;;;;;;11.60;5.43;;;24.40;35.10;;;;;;5064574;28;20167;-78
2022/05/18 06:21:34;;;;;;;10.95;5.40;;;24.50;31.80;;;;;;5063571;28;20040;-78
2022/05/18 06:24:00;;;;;;;10.18;5.18;;;24.60;31.00;;;;;;5065933;28;20049;-78
2022/05/18 06:26:26;;;;;;;9.15;4.68;;;25.00;26.50;;;;;;5058498;28;20041;-78
2022/05/18 06:28:52;;;;;;;7.55;4.65;;;25.10;22.40;;;;;;5053413;28;20116;-78
2022/05/18 06:31:18;;;;;;;11.05;5.78;;;25.30;20.30;;;;;;5037393;28;20391;-78
2022/05/18 06:33:44;;;;;;;9.82;5.35;;;25.40;20.90;;;;;;5033281;28;20063;-78
2022/05/18 06:36:10;;;;;;;13.13;5.97;;;25.30;21.60;;;;;;5033682;28;20049;-78
2022/05/18 06:38:35;;;;;;;11.52;5.70;;;25.70;17.90;;;;;;5052776;28;20123;-78
2022/05/18 06:43:45;;;;;;;10.88;6.13;;;25.80;13.20;;;;;;5053121;28;20059;-78
2022/05/18 06:46:12;;;;;;;12.48;6.25;;;25.70;16.30;;;;;;5051141;28;20132;-78
2022/05/18 06:48:40;;;;;;;9.55;5.82;;;26.30;12.40;;;;;;5070114;28;20048;-77
2022/05/18 06:51:06;;;;;;;14.95;6.32;;;26.60;10.30;;;;;;5051007;28;20489;-79
2022/05/18 06:53:32;;;;;;;10.88;4.70;;;26.80;7.50;;;;;;5049874;28;20045;-79
2022/05/18 06:55:58;;;;;;;8.70;5.38;;;27.00;7.80;;;;;;5049761;28;20719;-79
2022/05/18 06:58:23;;;;;;;7.90;5.45;;;26.80;3.50;;;;;;5050163;28;20116;-79
2022/05/18 07:00:49;;;;;;;13.30;6.35;;;26.50;6.90;;;;;;5049674;28;20405;-79
2022/05/18 07:03:15;;;;;;;7.78;4.80;;;27.30;1.00;;;;;;5049765;28;20182;-79
2022/05/18 07:05:40;;;;;;;8.38;5.50;;;27.40;1.00;;;;;;5050189;28;20048;-79
2022/05/18 07:08:07;;;;;;;10.73;5.55;;;28.10;1.00;;;;;;5050013;28;20048;-79
2022/05/18 07:10:32;;;;;;;14.25;5.10;;;28.40;1.00;;;;;;5048243;28;20512;-79
2022/05/18 07:12:58;;;;;;;10.00;6.53;;;28.90;1.00;;;;;;5049549;28;20107;-79
2022/05/18 07:15:24;;;;;;;7.43;4.50;;;29.20;1.00;;;;;;5054716;28;20520;-79
2022/05/18 07:17:49;;;;;;;7.65;4.80;;;29.80;1.00;;;;;;5072847;28;20036;-79
2022/05/18 07:20:15;;;;;;;8.48;4.60;;;29.30;1.00;;;;;;5055253;28;20045;-79
2022/05/18 07:22:41;;;;;;;8.93;4.53;;;29.40;1.00;;;;;;5051359;28;20045;-79
2022/05/18 07:25:07;;;;;;;7.03;4.63;;;29.60;1.00;;;;;;5048398;28;20094;-77
2022/05/18 07:27:32;;;;;;;9.10;4.30;;;29.70;1.00;;;;;;5049490;28;20408;-80
2022/05/18 07:29:58;;;;;;;5.80;4.20;;;30.20;1.00;;;;;;5049904;28;20044;-80
2022/05/18 07:32:24;;;;;;;8.43;4.57;;;30.20;1.00;;;;;;5049257;28;20045;-80
2022/05/18 07:34:49;;;;;;;6.85;4.18;;;30.20;1.00;;;;;;5064861;28;20033;-81
2022/05/18 07:37:18;;;;;;;8.65;4.60;;;30.30;1.00;;;;;;5052374;28;20099;-81
2022/05/18 07:39:44;;;;;;;6.30;4.07;;;30.70;1.00;;;;;;5052464;28;20061;-81
2022/05/18 07:42:10;;;;;;;9.20;4.22;;;31.10;1.00;;;;;;5052861;28;20052;-81
2022/05/18 07:44:37;;;;;;;9.20;4.28;;;31.00;1.00;;;;;;5051612;28;20504;-81
2022/05/18 07:47:05;;;;;;;8.13;4.95;;;31.10;1.00;;;;;;5055565;28;20044;-81
2022/05/18 07:49:39;;;;;;;7.60;4.40;;;30.80;1.00;;;;;;5058730;28;20045;-81
2022/05/18 07:52:05;;;;;;;8.63;4.32;;;30.70;1.00;;;;;;5057891;28;20049;-81
2022/05/18 07:54:31;;;;;;;8.73;4.40;;;30.70;1.00;;;;;;5057696;28;20080;-82
2022/05/18 07:56:56;;;;;;;11.40;4.63;;;30.80;1.00;;;;;;5056319;28;20045;-81
2022/05/18 07:59:22;;;;;;;9.82;4.20;;;31.30;1.00;;;;;;5054759;28;20049;-81
2022/05/18 08:01:47;;;;;;;9.65;4.40;;;31.50;1.00;;;;;;5056853;28;20057;-81
2022/05/18 08:04:14;;;;;;;9.80;4.38;;;31.80;1.00;;;;;;5056949;28;20132;-81
2022/05/18 08:06:40;;;;;;;6.82;3.55;;;32.10;1.00;;;;;;5057181;28;20094;-81
2022/05/18 08:09:06;;;;;;;8.90;4.43;;;32.30;1.00;;;;;;5056276;28;20037;-81
2022/05/18 08:17:00;;;;;;;7.68;4.15;;;32.30;1.00;;;;;;5056930;28;20053;-81
2022/05/18 08:19:25;;;;;;;8.70;4.30;;;32.70;1.00;;;;;;5056904;28;20048;-81
2022/05/18 08:21:51;;;;;;;7.35;3.92;;;32.80;1.00;;;;;;5055355;28;20438;-81
2022/05/18 08:24:17;;;;;;;9.90;3.90;;;32.30;1.00;;;;;;5055357;28;20056;-81
2022/05/18 08:26:42;;;;;;;7.95;3.50;;;31.80;1.00;;;;;;5056339;28;20052;-81
2022/05/18 08:29:09;;;;;;;9.50;3.83;;;31.90;1.00;;;;;;5056383;28;20057;-81
2022/05/18 08:31:35;;;;;;;10.05;4.38;;;32.10;1.00;;;;;;5056244;28;20111;-81
2022/05/18 08:34:01;;;;;;;7.85;3.50;;;32.40;1.00;;;;;;5071836;28;20044;-81
2022/05/18 08:36:27;;;;;;;8.43;3.45;;;32.00;1.00;;;;;;5056464;28;20073;-81
2022/05/18 08:38:54;;;;;;;4.90;3.20;;;32.10;1.00;;;;;;5056334;28;20045;-81
2022/05/18 08:41:41;;;;;;;4.97;2.75;;;32.30;1.00;;;;;;5056064;28;20481;-81
2022/05/18 08:44:17;;;;;;;5.28;2.75;;;32.30;1.00;;;;;;5054962;28;20124;-81
2022/05/18 08:46:54;;;;;;;12.10;3.33;;;32.30;1.00;;;;;;5038531;28;20049;-82
2022/05/18 08:49:29;;;;;;;5.63;2.72;;;32.20;1.00;;;;;;5056282;28;20413;-82
2022/05/18 08:52:04;;;;;;;8.98;3.65;;;32.70;1.00;;;;;;5056330;28;20057;-81
2022/05/18 08:54:35;;;;;;;8.32;3.30;;;32.60;1.00;;;;;;5056136;28;20056;-81
2022/05/18 08:57:04;;;;;;;8.88;3.60;;;32.60;1.00;;;;;;5055859;28;20053;-81
2022/05/18 08:59:33;;;;;;;8.10;3.35;;;32.30;1.00;;;;;;5055976;28;20114;-82
2022/05/18 09:02:11;;;;;;;7.85;3.00;;;32.70;1.00;;;;;;5054474;28;20150;-81
2022/05/18 09:04:51;;;;;;;9.60;3.88;;;33.00;1.00;;;;;;5055998;28;20049;-81
2022/05/18 09:07:22;;;;;;;8.20;2.95;;;33.70;1.00;;;;;;5056003;28;20040;-82
2022/05/18 09:10:12;;;;;;;6.30;3.05;;;33.40;1.00;;;;;;5055978;28;20045;-81
2022/05/18 09:12:43;;;;;;;6.93;3.78;;;33.60;1.00;;;;;;5055245;28;20120;-82
2022/05/18 09:15:13;;;;;;;11.52;3.80;;;33.40;1.00;;;;;;5055447;28;20052;-82
2022/05/18 09:18:05;;;;;;;7.82;4.18;;;33.50;1.00;;;;;;5054590;28;20358;-82
2022/05/18 09:20:52;;;;;;;7.38;3.78;;;33.60;1.00;;;;;;5055624;28;20037;-82
2022/05/18 09:23:41;;;;;;;8.73;4.13;;;33.40;1.00;;;;;;5055820;28;20045;-82
2022/05/18 09:26:33;;;;;;;11.85;4.10;;;33.40;1.00;;;;;;5055446;28;20144;-82
2022/05/18 09:29:27;;;;;;;12.43;4.60;;;33.50;1.00;;;;;;5055176;28;20565;-82
2022/05/18 09:32:11;;;;;;;8.45;4.25;;;33.50;1.00;;;;;;5055574;28;20064;-82
2022/05/18 09:35:04;;;;;;;7.40;4.57;;;33.40;1.00;;;;;;5055529;28;20485;-82
2022/05/18 09:37:37;;;;;;;9.95;4.68;;;33.50;1.00;;;;;;5055316;28;20064;-82
2022/05/18 09:40:12;;;;;;;8.55;3.92;;;33.10;1.00;;;;;;5055226;28;20386;-82
2022/05/18 09:42:42;;;;;;;8.30;4.10;;;33.00;1.00;;;;;;5055834;28;20102;-82
2022/05/18 09:45:10;;;;;;;8.13;4.25;;;33.00;1.00;;;;;;5070980;28;20056;-82
2022/05/18 09:47:49;;;;;;;8.65;4.35;;;32.90;1.00;;;;;;5055768;28;20377;-82
2022/05/18 09:50:15;;;;;;;8.48;3.92;;;32.90;1.00;;;;;;5055445;28;20063;-82
2022/05/18 09:52:44;;;;;;;9.23;4.15;;;33.00;1.00;;;;;;5053556;28;20041;-82
2022/05/18 09:55:14;;;;;;;11.10;3.47;;;32.80;1.00;;;;;;5055073;28;20049;-82
2022/05/18 09:58:02;;;;;;;8.13;3.92;;;32.70;1.00;;;;;;5055328;28;20328;-82
2022/05/18 10:00:31;;;;;;;9.70;4.05;;;32.50;1.00;;;;;;5051300;28;20053;-82
2022/05/18 10:08:45;;;;;;;7.00;4.03;;;32.30;1.00;;;;;;5054758;28;20096;-82
2022/05/18 10:11:17;;;;;;;11.32;3.47;;;31.90;1.00;;;;;;5054788;28;20072;-82
2022/05/18 10:14:06;;;;;;;6.82;3.22;;;31.90;1.00;;;;;;5055052;28;20128;-82
2022/05/18 10:17:01;;;;;;;15.73;3.85;;;32.10;1.00;;;;;;5054484;28;20064;-82
2022/05/18 10:19:32;;;;;;;7.32;3.00;;;32.30;1.00;;;;;;5054830;28;20049;-82
2022/05/18 10:22:06;;;;;;;7.80;3.45;;;32.30;1.00;;;;;;5054288;28;20049;-82
2022/05/18 10:24:54;;;;;;;7.07;3.33;;;32.40;1.00;;;;;;5035390;28;20124;-82
2022/05/18 10:27:31;;;;;;;5.80;3.17;;;32.50;1.00;;;;;;5054681;28;20048;-83
2022/05/18 10:30:28;;;;;;;7.07;3.38;;;32.30;1.00;;;;;;5054385;28;20440;-82
2022/05/18 10:32:59;;;;;;;9.77;2.83;;;32.20;1.00;;;;;;5054297;28;20072;-83
2022/05/18 10:35:47;;;;;;;10.02;2.83;;;32.40;1.00;;;;;;5054296;28;20440;-83
2022/05/18 10:38:17;;;;;;;10.63;3.08;;;32.60;1.00;;;;;;5054424;28;20041;-82
2022/05/18 10:40:43;;;;;;;11.38;2.88;;;32.50;1.00;;;;;;5054468;28;20045;-83
2022/05/18 10:43:29;;;;;;;8.70;3.10;;;32.50;1.00;;;;;;5054065;28;20049;-82
2022/05/18 10:45:58;;;;;;;8.60;2.78;;;32.70;1.00;;;;;;5054360;28;20053;-82
2022/05/18 10:48:27;;;;;;;6.60;3.33;;;32.60;1.00;;;;;;5053831;28;20056;-83
2022/05/18 10:51:04;;;;;;;7.43;4.55;;;32.60;1.00;;;;;;5054119;28;20055;-83
2022/05/18 10:53:34;;;;;;;10.38;3.70;;;32.50;1.00;;;;;;5054060;28;20351;-82
2022/05/18 10:56:24;;;;;;;6.55;3.97;;;32.40;1.00;;;;;;5054047;28;20056;-83
2022/05/18 10:59:14;;;;;;;9.35;4.03;;;32.40;1.00;;;;;;5053904;28;20162;-83
2022/05/18 11:01:47;;;;;;;9.32;4.80;;;32.30;1.00;;;;;;5053632;28;20136;-83
2022/05/18 11:04:21;;;;;;;12.63;4.10;;;32.20;1.00;;;;;;5053613;28;20093;-83
2022/05/18 11:06:47;;;;;;;9.52;4.22;;;32.50;1.00;;;;;;5053560;28;20355;-83
2022/05/18 11:09:12;;;;;;;12.70;4.60;;;32.80;1.00;;;;;;5053863;28;20044;-83
2022/05/18 11:12:00;;;;;;;10.60;4.50;;;32.80;1.00;;;;;;5053414;28;20176;-84
2022/05/18 11:14:34;;;;;;;9.15;4.22;;;33.10;1.00;;;;;;5053463;28;20052;-83
2022/05/18 11:17:14;;;;;;;8.73;4.57;;;33.20;1.00;;;;;;5053709;28;20049;-83
2022/05/18 11:20:07;;;;;;;10.05;5.45;;;33.30;1.00;;;;;;5053647;28;20084;-83
2022/05/18 11:22:59;;;;;;;8.15;5.35;;;33.60;1.00;;;;;;5053896;28;20094;-83
2022/05/18 11:25:53;;;;;;;7.63;4.20;;;34.00;1.00;;;;;;5053655;28;20045;-83
2022/05/18 11:28:44;;;;;;;7.68;3.90;;;34.20;1.00;;;;;;5053315;28;20049;-83
2022/05/18 11:31:51;;;;;;;6.97;3.65;;;35.00;1.00;;;;;;5053413;28;20052;-84
2022/05/18 11:34:30;;;;;;;7.82;4.07;;;35.60;1.00;;;;;;5053047;28;20389;-83
2022/05/18 11:37:14;;;;;;;11.27;4.78;;;35.50;1.00;;;;;;5053096;28;20473;-83
2022/05/18 11:39:59;;;;;;;10.17;5.63;;;35.50;1.00;;;;;;5053110;28;20056;-83
2022/05/18 11:42:49;;;;;;;8.37;5.03;;;35.50;1.00;;;;;;5051682;28;20045;-84
2022/05/18 11:45:51;;;;;;;9.38;5.35;;;35.80;1.00;;;;;;5053493;28;20056;-83
2022/05/18 11:48:36;;;;;;;13.80;6.25;;;36.20;1.00;;;;;;5053265;28;20052;-83
2022/05/18 11:51:17;;;;;;;9.00;4.53;;;36.90;1.00;;;;;;5053462;28;20174;-83
2022/05/18 11:54:09;;;;;;;12.65;5.10;;;37.70;1.00;;;;;;5053193;28;20049;-83
2022/05/18 11:57:01;;;;;;;11.63;6.05;;;37.90;1.00;;;;;;5051605;28;20091;-83
2022/05/18 11:59:55;;;;;;;9.85;4.75;;;38.30;1.00;;;;;;5052757;28;20478;-84
2022/05/18 12:02:42;;;;;;;12.70;5.40;;;38.30;1.00;;;;;;5053576;28;20132;-83
2022/05/18 12:05:28;;;;;;;10.20;4.55;;;37.80;1.00;;;;;;5052861;28;20049;-83
2022/05/18 12:08:24;;;;;;;8.88;4.50;;;37.20;1.00;;;;;;5053129;28;20045;-84
2022/05/18 12:11:11;;;;;;;12.73;5.95;;;36.20;1.00;;;;;;5052758;28;20060;-84
2022/05/18 12:13:58;;;;;;;10.65;5.75;;;35.50;1.00;;;;;;5052001;28;20045;-84
2022/05/18 12:16:39;;;;;;;12.13;7.97;;;35.50;1.00;;;;;;5053105;28;20057;-83
2022/05/18 12:19:17;;;;;;;11.02;6.25;;;35.50;1.00;;;;;;5051595;28;20541;-84
2022/05/18 12:21:47;;;;;;;9.68;6.00;;;36.10;1.00;;;;;;5052856;28;20124;-83
2022/05/18 12:24:14;;;;;;;12.30;8.18;;;35.20;1.00;;;;;;5051503;28;20131;-83
2022/05/18 12:26:44;;;;;;;13.27;7.20;;;33.80;1.00;;;;;;5053059;28;20083;-84
2022/05/18 12:29:11;;;;;;;14.70;7.95;;;33.70;1.00;;;;;;5053396;28;20060;-84
2022/05/18 12:31:38;;;;;;;11.43;7.10;;;33.10;1.00;;;;;;5052828;28;20409;-84
2022/05/18 12:34:13;;;;;;;12.45;8.30;;;33.30;1.00;;;;;;5052672;28;20049;-84
2022/05/18 12:36:51;;;;;;;12.07;7.22;;;33.60;1.00;;;;;;5052669;28;20048;-84
2022/05/18 12:39:31;;;;;;;12.20;7.60;;;33.50;1.00;;;;;;5052356;28;20482;-84
2022/05/18 12:42:00;;;;;;;10.82;5.63;;;34.00;1.00;;;;;;5052688;28;20053;-83
2022/05/18 12:44:34;;;;;;;8.52;5.20;;;33.90;1.00;;;;;;5052546;28;20052;-83
2022/05/18 12:47:03;;;;;;;13.43;5.70;;;33.90;1.00;;;;;;5053986;28;20060;-84
2022/05/18 12:49:39;;;;;;;11.43;6.32;;;34.20;1.00;;;;;;5056510;28;20033;-84
2022/05/18 12:52:30;;;;;;;14.50;7.00;;;34.00;1.00;;;;;;5056671;28;20392;-84
2022/05/18 12:55:01;;;;;;;13.13;7.20;;;34.20;1.00;;;;;;5056249;28;20162;-84
2022/05/18 12:57:42;;;;;;;10.52;6.05;;;34.80;1.00;;;;;;5055919;28;20047;-84
2022/05/18 13:00:29;;;;;;;10.60;6.10;;;35.00;1.00;;;;;;5056096;28;20053;-84
2022/05/18 13:03:22;;;;;;;14.27;6.35;;;34.50;1.00;;;;;;5044283;28;20136;-84
2022/05/18 13:05:53;;;;;;;8.85;6.03;;;33.90;1.00;;;;;;5055708;28;20044;-84
2022/05/18 13:08:18;;;;;;;11.40;5.85;;;33.40;1.00;;;;;;5055523;28;20048;-84
2022/05/18 13:11:06;;;;;;;11.85;5.60;;;33.00;1.00;;;;;;5055302;28;20509;-83
2022/05/18 13:13:57;;;;;;;7.63;4.50;;;32.90;1.00;;;;;;5054102;28;20053;-84
2022/05/18 13:16:37;;;;;;;10.65;4.05;;;32.70;1.00;;;;;;5053849;28;20144;-84
2022/05/18 13:19:19;;;;;;;8.27;4.10;;;33.00;1.00;;;;;;5055346;28;20043;-84
2022/05/18 13:21:51;;;;;;;9.00;4.25;;;33.30;1.00;;;;;;5054094;28;20102;-84
2022/05/18 13:24:26;;;;;;;6.65;3.53;;;33.90;1.00;;;;;;5053853;28;20053;-84